createdAt,value
2018-01-15T00:00:30.711Z,84.24
2018-01-15T00:01:53.796Z,84.20
2018-01-15T00:03:20.542Z,84.27
2018-01-15T00:04:47.461Z,84.32
2018-01-15T00:06:14.474Z,84.39
2018-01-15T00:07:45.336Z,84.48
2018-01-15T00:09:12.274Z,84.51
2018-01-15T00:10:35.176Z,84.56
2018-01-15T00:12:02.343Z,84.19
2018-01-15T00:13:33.430Z,84.38
2018-01-15T00:15:00.397Z,84.19
2018-01-15T00:16:27.522Z,84.24
2018-01-15T00:17:54.423Z,84.08
2018-01-15T00:19:17.282Z,84.25
2018-01-15T00:20:48.425Z,84.34
2018-01-15T00:22:15.421Z,84.28
2018-01-15T00:23:38.587Z,84.38
2018-01-15T00:25:09.645Z,84.55
2018-01-15T00:26:32.747Z,84.56
2018-01-15T00:28:03.419Z,84.52
2018-01-15T00:29:26.261Z,84.38
2018-01-15T00:30:53.236Z,84.36
2018-01-15T00:32:23.984Z,84.59
2018-01-15T00:33:51.062Z,84.55
2018-01-15T00:35:17.995Z,84.61
2018-01-15T00:36:44.818Z,84.55
2018-01-15T00:38:08.113Z,84.72
2018-01-15T00:39:34.849Z,84.72
2018-01-15T00:41:05.811Z,84.82
2018-01-15T00:42:32.772Z,84.91
2018-01-15T00:43:55.544Z,84.71
2018-01-15T00:45:22.399Z,84.38
2018-01-15T00:46:53.282Z,84.12
2018-01-15T00:48:16.461Z,84.22
2018-01-15T00:49:47.457Z,83.92
2018-01-15T00:51:10.533Z,83.85
2018-01-15T00:52:37.462Z,83.34
2018-01-15T00:54:08.481Z,83.58
2018-01-15T00:55:35.511Z,83.71
2018-01-15T00:57:02.495Z,83.45
2018-01-15T00:58:25.450Z,83.71
2018-01-15T00:59:56.335Z,83.88
2018-01-15T01:01:19.358Z,83.86
2018-01-15T01:02:50.321Z,83.83
2018-01-15T01:04:17.281Z,83.55
2018-01-15T01:05:44.419Z,83.58
2018-01-15T01:07:07.607Z,83.62
2018-01-15T01:08:38.744Z,83.72
2018-01-15T01:10:05.752Z,83.60
2018-01-15T01:11:28.691Z,83.92
2018-01-15T01:12:59.672Z,83.76
2018-01-15T01:14:26.679Z,83.78
2018-01-15T01:15:53.852Z,83.55
2018-01-15T01:17:16.699Z,83.69
2018-01-15T01:18:47.551Z,83.69
2018-01-15T01:20:14.567Z,83.88
2018-01-15T01:21:41.476Z,83.45
2018-01-15T01:23:04.593Z,83.78
2018-01-15T01:24:35.583Z,83.94
2018-01-15T01:26:02.390Z,83.59
2018-01-15T01:27:29.571Z,83.68
2018-01-15T01:28:56.757Z,83.54
2018-01-15T01:30:19.827Z,83.91
2018-01-15T01:31:50.889Z,83.80
2018-01-15T01:33:17.772Z,83.63
2018-01-15T01:34:44.888Z,83.52
2018-01-15T01:36:08.021Z,83.42
2018-01-15T01:37:38.828Z,83.37
2018-01-15T01:39:01.849Z,83.47
2018-01-15T01:40:32.912Z,83.32
2018-01-15T01:41:59.926Z,83.36
2018-01-15T01:43:26.634Z,83.35
2018-01-15T01:44:53.722Z,83.64
2018-01-15T01:46:16.876Z,83.73
2018-01-15T01:47:47.896Z,83.55
2018-01-15T01:49:10.859Z,83.45
2018-01-15T01:50:41.888Z,83.06
2018-01-15T01:52:04.854Z,83.36
2018-01-15T01:53:35.646Z,83.66
2018-01-15T01:55:02.742Z,83.83
2018-01-15T01:56:29.710Z,83.75
2018-01-15T01:57:52.690Z,83.70
2018-01-15T01:59:19.556Z,84.04
2018-01-15T02:00:50.413Z,83.89
2018-01-15T02:02:17.307Z,83.98
2018-01-15T02:03:44.109Z,84.04
2018-01-15T02:05:11.063Z,83.85
2018-01-15T02:06:38.050Z,83.99
2018-01-15T02:08:05.024Z,84.00
2018-01-15T02:09:32.066Z,83.94
2018-01-15T02:10:58.953Z,84.02
2018-01-15T02:12:25.908Z,83.99
2018-01-15T02:13:52.734Z,83.82
2018-01-15T02:15:19.536Z,83.68
2018-01-15T02:16:46.616Z,83.81
2018-01-15T02:18:13.793Z,83.71
2018-01-15T02:19:40.664Z,83.89
2018-01-15T02:21:07.600Z,83.79
2018-01-15T02:22:34.720Z,83.93
2018-01-15T02:24:01.796Z,84.11
2018-01-15T02:25:28.806Z,83.83
2018-01-15T02:26:55.953Z,83.81
2018-01-15T02:28:22.803Z,84.07
2018-01-15T02:29:49.774Z,84.33
2018-01-15T02:31:12.757Z,84.37
2018-01-15T02:32:43.648Z,84.34
2018-01-15T02:34:14.590Z,84.28
2018-01-15T02:35:33.706Z,84.14
2018-01-15T02:37:00.682Z,84.16
2018-01-15T02:38:31.820Z,84.02
2018-01-15T02:39:58.670Z,84.16
2018-01-15T02:41:25.609Z,84.32
2018-01-15T02:42:52.691Z,84.40
2018-01-15T02:44:19.717Z,84.31
2018-01-15T02:45:42.697Z,84.38
2018-01-15T02:47:13.743Z,84.39
2018-01-15T02:48:40.906Z,84.27
2018-01-15T02:50:04.044Z,84.03
2018-01-15T02:51:34.943Z,83.89
2018-01-15T02:52:57.994Z,84.02
2018-01-15T02:54:28.941Z,83.89
2018-01-15T02:55:56.053Z,83.80
2018-01-15T02:57:19.180Z,83.92
2018-01-15T02:58:46.248Z,83.67
2018-01-15T03:00:13.231Z,83.49
2018-01-15T03:01:40.033Z,83.44
2018-01-15T03:03:11.056Z,83.33
2018-01-15T03:04:38.143Z,83.39
2018-01-15T03:06:05.104Z,83.64
2018-01-15T03:07:28.053Z,83.53
2018-01-15T03:08:59.146Z,83.50
2018-01-15T03:10:26.175Z,83.64
2018-01-15T03:11:53.049Z,83.75
2018-01-15T03:13:16.192Z,83.50
2018-01-15T03:14:47.096Z,83.61
2018-01-15T03:16:14.351Z,83.50
2018-01-15T03:17:37.434Z,83.30
2018-01-15T03:19:08.255Z,83.24
2018-01-15T03:20:35.263Z,83.10
2018-01-15T03:22:02.286Z,83.20
2018-01-15T03:23:29.268Z,83.04
2018-01-15T03:24:56.204Z,83.10
2018-01-15T03:26:23.413Z,83.17
2018-01-15T03:27:50.210Z,83.12
2018-01-15T03:29:13.149Z,83.08
2018-01-15T03:30:44.318Z,83.21
2018-01-15T03:32:11.299Z,83.22
2018-01-15T03:33:38.168Z,83.30
2018-01-15T03:35:01.326Z,83.16
2018-01-15T03:36:28.399Z,83.19
2018-01-15T03:37:59.328Z,83.03
2018-01-15T03:39:22.455Z,83.07
2018-01-15T03:40:49.556Z,82.99
2018-01-15T03:42:16.421Z,83.42
2018-01-15T03:43:43.481Z,83.38
2018-01-15T03:45:10.683Z,83.40
2018-01-15T03:46:41.510Z,83.51
2018-01-15T03:48:08.358Z,83.37
2018-01-15T03:49:35.438Z,83.42
2018-01-15T03:50:58.519Z,83.26
2018-01-15T03:52:29.678Z,83.12
2018-01-15T03:53:56.544Z,83.24
2018-01-15T03:55:19.854Z,83.15
2018-01-15T03:56:46.974Z,83.00
2018-01-15T03:58:17.981Z,83.10
2018-01-15T03:59:44.947Z,83.13
2018-01-15T04:01:07.835Z,83.08
2018-01-15T04:02:34.985Z,83.02
2018-01-15T04:04:02.227Z,82.83
2018-01-15T04:05:29.238Z,83.07
2018-01-15T04:07:00.292Z,82.88
2018-01-15T04:08:27.281Z,83.14
2018-01-15T04:09:54.472Z,83.05
2018-01-15T04:11:21.617Z,82.78
2018-01-15T04:12:48.607Z,82.59
2018-01-15T04:14:15.885Z,82.96
2018-01-15T04:15:42.908Z,82.63
2018-01-15T04:17:06.037Z,82.68
2018-01-15T04:18:33.406Z,82.36
2018-01-15T04:20:04.239Z,82.26
2018-01-15T04:21:31.286Z,82.37
2018-01-15T04:22:58.180Z,82.41
2018-01-15T04:24:21.192Z,82.28
2018-01-15T04:25:48.332Z,82.45
2018-01-15T04:27:19.260Z,82.70
2018-01-15T04:28:46.423Z,82.36
2018-01-15T04:30:09.650Z,82.24
2018-01-15T04:31:40.711Z,82.39
2018-01-15T04:33:03.509Z,82.33
2018-01-15T04:34:30.452Z,82.16
2018-01-15T04:35:57.433Z,82.12
2018-01-15T04:37:28.500Z,82.11
2018-01-15T04:38:51.478Z,82.26
2018-01-15T04:40:22.522Z,82.01
2018-01-15T04:41:49.480Z,82.18
2018-01-15T04:43:12.519Z,82.33
2018-01-15T04:44:39.725Z,82.18
2018-01-15T04:46:06.610Z,82.28
2018-01-15T04:47:37.558Z,82.40
2018-01-15T04:49:04.323Z,82.14
2018-01-15T04:50:27.488Z,82.23
2018-01-15T04:51:58.549Z,82.49
2018-01-15T04:53:25.470Z,82.45
2018-01-15T04:54:48.617Z,82.25
2018-01-15T04:56:19.615Z,82.45
2018-01-15T04:57:46.681Z,82.41
2018-01-15T04:59:13.822Z,82.22
2018-01-15T05:00:40.926Z,82.32
2018-01-15T05:02:03.856Z,82.40
2018-01-15T05:03:34.695Z,82.21
2018-01-15T05:04:57.712Z,82.02
2018-01-15T05:06:28.571Z,81.99
2018-01-15T05:07:55.594Z,81.99
2018-01-15T05:09:22.537Z,81.71
2018-01-15T05:10:45.559Z,81.68
2018-01-15T05:12:16.401Z,81.47
2018-01-15T05:13:43.457Z,81.62
2018-01-15T05:15:10.443Z,81.62
2018-01-15T05:16:37.543Z,81.43
2018-01-15T05:18:04.619Z,81.68
2018-01-15T05:19:31.689Z,81.51
2018-01-15T05:20:58.484Z,81.80
2018-01-15T05:22:25.530Z,81.94
2018-01-15T05:23:52.485Z,81.98
2018-01-15T05:25:15.576Z,81.90
2018-01-15T05:26:46.613Z,82.02
2018-01-15T05:28:09.654Z,82.00
2018-01-15T05:29:40.767Z,81.72
2018-01-15T05:31:03.721Z,81.64
2018-01-15T05:32:30.937Z,81.84
2018-01-15T05:34:01.776Z,81.72
2018-01-15T05:35:24.912Z,81.66
2018-01-15T05:36:51.903Z,81.71
2018-01-15T05:38:23.942Z,81.80
2018-01-15T05:39:50.128Z,81.51
2018-01-15T05:41:17.308Z,81.75
2018-01-15T05:42:40.447Z,81.29
2018-01-15T05:44:11.560Z,81.42
2018-01-15T05:45:38.487Z,81.62
2018-01-15T05:47:01.587Z,81.57
2018-01-15T05:48:28.611Z,81.66
2018-01-15T05:49:59.415Z,81.56
2018-01-15T05:51:26.573Z,81.69
2018-01-15T05:52:49.766Z,81.75
2018-01-15T05:54:16.566Z,81.63
2018-01-15T05:55:47.773Z,81.60
2018-01-15T05:57:10.935Z,81.87
2018-01-15T05:58:41.844Z,81.54
2018-01-15T06:00:08.953Z,81.47
2018-01-15T06:01:31.854Z,81.40
2018-01-15T06:03:02.765Z,81.26
2018-01-15T06:04:29.417Z,81.24
2018-01-15T06:05:56.440Z,81.22
2018-01-15T06:07:19.518Z,81.15
2018-01-15T06:08:46.874Z,81.28
2018-01-15T06:10:14.082Z,81.27
2018-01-15T06:11:41.155Z,81.17
2018-01-15T06:13:12.113Z,80.93
2018-01-15T06:14:39.256Z,80.99
2018-01-15T06:16:06.151Z,81.01
2018-01-15T06:17:33.136Z,80.94
2018-01-15T06:19:00.322Z,80.72
2018-01-15T06:20:27.388Z,80.86
2018-01-15T06:21:54.383Z,80.85
2018-01-15T06:23:17.430Z,80.72
2018-01-15T06:24:44.348Z,81.00
2018-01-15T06:26:11.453Z,80.94
2018-01-15T06:27:42.667Z,80.65
2018-01-15T06:29:09.857Z,80.59
2018-01-15T06:30:36.847Z,80.71
2018-01-15T06:32:03.898Z,80.72
2018-01-15T06:33:30.939Z,80.68
2018-01-15T06:34:53.913Z,80.62
2018-01-15T06:36:24.577Z,80.54
2018-01-15T06:37:51.689Z,80.39
2018-01-15T06:39:14.957Z,80.55
2018-01-15T06:40:45.846Z,80.51
2018-01-15T06:42:13.084Z,80.76
2018-01-15T06:43:36.147Z,80.92
2018-01-15T06:45:07.201Z,80.94
2018-01-15T06:46:34.459Z,81.05
2018-01-15T06:48:01.256Z,80.79
2018-01-15T06:49:24.228Z,80.98
2018-01-15T06:50:55.204Z,80.89
2018-01-15T06:52:22.136Z,80.95
2018-01-15T06:53:45.186Z,80.92
2018-01-15T06:55:16.273Z,80.83
2018-01-15T06:56:39.442Z,80.94
2018-01-15T06:58:10.683Z,81.03
2018-01-15T06:59:33.834Z,81.10
2018-01-15T07:01:01.006Z,81.19
2018-01-15T07:02:28.212Z,81.15
2018-01-15T07:03:59.062Z,81.13
2018-01-15T07:05:26.106Z,81.16
2018-01-15T07:06:53.175Z,81.29
2018-01-15T07:08:20.342Z,81.42
2018-01-15T07:09:43.263Z,81.25
2018-01-15T07:11:14.351Z,81.41
2018-01-15T07:12:37.494Z,81.43
2018-01-15T07:14:08.653Z,81.47
2018-01-15T07:15:35.497Z,81.42
2018-01-15T07:17:02.599Z,81.39
2018-01-15T07:18:25.491Z,81.37
2018-01-15T07:19:56.479Z,81.31
2018-01-15T07:21:23.535Z,81.39
2018-01-15T07:22:46.600Z,81.50
2018-01-15T07:24:17.482Z,81.44
2018-01-15T07:25:44.569Z,81.50
2018-01-15T07:27:07.753Z,81.49
2018-01-15T07:28:38.702Z,81.29
2018-01-15T07:30:05.850Z,81.36
2018-01-15T07:31:28.966Z,81.44
2018-01-15T07:33:00.205Z,81.56
2018-01-15T07:34:27.162Z,81.58
2018-01-15T07:35:50.324Z,81.49
2018-01-15T07:37:17.403Z,81.58
2018-01-15T07:38:48.585Z,81.72
2018-01-15T07:40:15.576Z,81.38
2018-01-15T07:41:42.750Z,81.56
2018-01-15T07:43:09.619Z,81.34
2018-01-15T07:44:36.651Z,81.27
2018-01-15T07:46:03.884Z,80.94
2018-01-15T07:47:30.943Z,81.02
2018-01-15T07:48:57.811Z,81.18
2018-01-15T07:50:24.972Z,81.04
2018-01-15T07:51:48.305Z,81.19
2018-01-15T07:53:19.377Z,81.17
2018-01-15T07:54:46.259Z,81.47
2018-01-15T07:56:09.104Z,81.45
2018-01-15T07:57:36.328Z,81.62
2018-01-15T07:59:03.377Z,81.67
2018-01-15T08:00:34.525Z,81.64
2018-01-15T08:02:01.572Z,81.55
2018-01-15T08:03:28.475Z,81.67
2018-01-15T08:04:51.591Z,81.73
2018-01-15T08:06:22.582Z,81.79
2018-01-15T08:07:45.651Z,81.60
2018-01-15T08:09:16.803Z,81.56
2018-01-15T08:10:43.953Z,81.49
2018-01-15T08:12:07.125Z,81.56
2018-01-15T08:13:34.109Z,81.61
2018-01-15T08:15:05.161Z,81.59
2018-01-15T08:16:32.021Z,81.68
2018-01-15T08:17:58.956Z,81.78
2018-01-15T08:19:25.857Z,81.86
2018-01-15T08:20:53.116Z,81.52
2018-01-15T08:22:19.845Z,81.59
2018-01-15T08:23:46.962Z,81.58
2018-01-15T08:25:13.891Z,81.42
2018-01-15T08:26:40.779Z,81.57
2018-01-15T08:28:03.818Z,81.45
2018-01-15T08:29:30.868Z,81.35
2018-01-15T08:31:02.074Z,81.43
2018-01-15T08:32:29.204Z,81.31
2018-01-15T08:33:52.126Z,81.04
2018-01-15T08:35:19.207Z,81.21
2018-01-15T08:36:50.230Z,81.18
2018-01-15T08:38:13.400Z,81.11
2018-01-15T08:39:44.581Z,81.29
2018-01-15T08:41:11.535Z,81.19
2018-01-15T08:42:38.587Z,81.10
2018-01-15T08:44:05.536Z,80.73
2018-01-15T08:45:32.693Z,80.63
2018-01-15T08:46:59.688Z,80.54
2018-01-15T08:48:26.474Z,80.62
2018-01-15T08:49:53.586Z,80.75
2018-01-15T08:51:20.600Z,80.71
2018-01-15T08:52:47.510Z,80.39
2018-01-15T08:54:10.730Z,79.92
2018-01-15T08:55:41.513Z,80.00
2018-01-15T08:57:08.330Z,79.78
2018-01-15T08:58:31.319Z,80.23
2018-01-15T08:59:58.500Z,79.84
2018-01-15T09:01:28.966Z,79.58
2018-01-15T09:02:56.003Z,79.80
2018-01-15T09:04:22.869Z,79.71
2018-01-15T09:05:45.968Z,79.61
2018-01-15T09:07:17.136Z,79.74
2018-01-15T09:08:44.285Z,79.93
2018-01-15T09:10:11.995Z,79.65
2018-01-15T09:11:37.978Z,79.87
2018-01-15T09:13:05.006Z,79.60
2018-01-15T09:14:32.111Z,79.75
2018-01-15T09:15:58.995Z,79.81
2018-01-15T09:17:21.870Z,79.69
2018-01-15T09:18:53.090Z,79.63
2018-01-15T09:20:19.997Z,79.63
2018-01-15T09:21:43.216Z,79.33
2018-01-15T09:23:14.425Z,79.47
2018-01-15T09:24:41.620Z,79.44
2018-01-15T09:26:08.090Z,79.48
2018-01-15T09:27:34.333Z,79.16
2018-01-15T09:29:01.345Z,79.10
2018-01-15T09:30:24.257Z,79.23
2018-01-15T09:31:55.184Z,79.31
2018-01-15T09:33:17.783Z,79.09
2018-01-15T09:34:48.986Z,78.63
2018-01-15T09:36:12.197Z,78.63
2018-01-15T09:37:42.947Z,78.64
2018-01-15T09:39:10.012Z,78.76
2018-01-15T09:40:33.217Z,78.85
2018-01-15T09:42:04.409Z,78.66
2018-01-15T09:43:31.245Z,78.65
2018-01-15T09:44:58.199Z,78.45
2018-01-15T09:46:21.266Z,78.47
2018-01-15T09:47:52.499Z,78.75
2018-01-15T09:49:19.277Z,78.85
2018-01-15T09:50:46.473Z,78.73
2018-01-15T09:52:13.662Z,78.61
2018-01-15T09:53:36.760Z,78.42
2018-01-15T09:55:07.663Z,78.45
2018-01-15T09:56:34.893Z,78.79
2018-01-15T09:58:01.647Z,78.75
2018-01-15T09:59:28.644Z,78.16
2018-01-15T10:00:51.737Z,78.13
2018-01-15T10:02:18.746Z,78.41
2018-01-15T10:03:45.829Z,77.74
2018-01-15T10:05:16.901Z,77.85
2018-01-15T10:06:43.556Z,78.01
2018-01-15T10:08:10.693Z,78.21
2018-01-15T10:09:37.309Z,78.21
2018-01-15T10:10:59.899Z,78.32
2018-01-15T10:12:30.773Z,77.96
2018-01-15T10:13:57.614Z,77.79
2018-01-15T10:15:20.703Z,77.26
2018-01-15T10:16:47.936Z,77.05
2018-01-15T10:18:15.209Z,77.00
2018-01-15T10:19:46.322Z,76.55
2018-01-15T10:21:09.605Z,76.51
2018-01-15T10:22:36.680Z,76.24
2018-01-15T10:24:07.520Z,76.59
2018-01-15T10:25:34.737Z,76.21
2018-01-15T10:26:57.591Z,75.92
2018-01-15T10:28:28.626Z,75.71
2018-01-15T10:29:55.651Z,75.94
2018-01-15T10:31:18.445Z,75.81
2018-01-15T10:32:49.584Z,75.57
2018-01-15T10:34:16.666Z,75.28
2018-01-15T10:35:43.891Z,75.50
2018-01-15T10:37:06.817Z,75.36
2018-01-15T10:38:37.894Z,75.61
2018-01-15T10:40:05.164Z,75.31
2018-01-15T10:41:28.196Z,75.23
2018-01-15T10:42:55.156Z,75.16
2018-01-15T10:44:22.332Z,75.37
2018-01-15T10:45:53.154Z,75.34
2018-01-15T10:47:16.386Z,75.40
2018-01-15T10:48:43.607Z,74.88
2018-01-15T10:50:10.979Z,75.07
2018-01-15T10:51:41.764Z,74.89
2018-01-15T10:53:08.713Z,74.14
2018-01-15T10:54:35.399Z,74.04
2018-01-15T10:56:02.568Z,74.33
2018-01-15T10:57:25.430Z,74.24
2018-01-15T10:58:56.511Z,74.20
2018-01-15T11:00:19.734Z,74.16
2018-01-15T11:01:50.970Z,74.23
2018-01-15T11:03:18.152Z,74.27
2018-01-15T11:04:41.302Z,74.52
2018-01-15T11:06:08.514Z,74.34
2018-01-15T11:07:39.609Z,74.66
2018-01-15T11:09:02.659Z,74.39
2018-01-15T11:10:29.664Z,74.59
2018-01-15T11:12:00.485Z,74.78
2018-01-15T11:13:23.643Z,74.49
2018-01-15T11:14:54.933Z,74.66
2018-01-15T11:16:18.296Z,74.58
2018-01-15T11:17:45.476Z,74.48
2018-01-15T11:19:16.718Z,74.42
2018-01-15T11:20:43.631Z,74.68
2018-01-15T11:22:06.431Z,74.58
2018-01-15T11:23:37.136Z,74.38
2018-01-15T11:25:00.190Z,74.53
2018-01-15T11:26:27.332Z,74.47
2018-01-15T11:27:58.463Z,74.40
2018-01-15T11:29:25.577Z,73.57
2018-01-15T11:30:52.853Z,73.86
2018-01-15T11:32:16.012Z,73.82
2018-01-15T11:33:46.839Z,74.00
2018-01-15T11:35:10.190Z,74.00
2018-01-15T11:36:37.283Z,74.17
2018-01-15T11:38:08.235Z,74.66
2018-01-15T11:39:35.543Z,74.14
2018-01-15T11:41:02.758Z,74.14
2018-01-15T11:42:29.802Z,74.25
2018-01-15T11:43:52.828Z,74.26
2018-01-15T11:45:20.222Z,73.76
2018-01-15T11:46:47.377Z,74.02
2018-01-15T11:48:18.538Z,73.94
2018-01-15T11:49:41.843Z,73.55
2018-01-15T11:51:13.060Z,72.70
2018-01-15T11:52:36.528Z,72.86
2018-01-15T11:54:07.704Z,72.25
2018-01-15T11:55:30.902Z,72.79
2018-01-15T11:57:02.132Z,73.29
2018-01-15T11:58:25.126Z,72.52
2018-01-15T11:59:52.161Z,72.63
2018-01-15T12:01:24.315Z,72.47
2018-01-15T12:02:50.451Z,72.67
2018-01-15T12:04:17.427Z,72.19
2018-01-15T12:05:44.552Z,71.76
2018-01-15T12:07:07.664Z,71.82
2018-01-15T12:08:38.586Z,72.37
2018-01-15T12:10:01.640Z,72.51
2018-01-15T12:11:28.772Z,72.44
2018-01-15T12:12:59.688Z,72.35
2018-01-15T12:14:26.441Z,72.86
2018-01-15T12:15:53.768Z,72.26
2018-01-15T12:17:17.091Z,72.14
2018-01-15T12:18:48.036Z,72.30
2018-01-15T12:20:11.251Z,71.99
2018-01-15T12:21:38.352Z,72.34
2018-01-15T12:23:09.541Z,72.61
2018-01-15T12:24:36.970Z,73.12
2018-01-15T12:26:04.051Z,72.68
2018-01-15T12:27:30.907Z,72.55
2018-01-15T12:28:58.036Z,72.79
2018-01-15T12:30:24.849Z,72.88
2018-01-15T12:31:51.312Z,73.08
2018-01-15T12:33:14.571Z,72.80
2018-01-15T12:34:45.786Z,72.86
2018-01-15T12:36:12.836Z,73.22
2018-01-15T12:37:40.011Z,73.23
2018-01-15T12:39:07.097Z,73.10
2018-01-15T12:40:30.234Z,73.62
2018-01-15T12:41:57.316Z,73.47
2018-01-15T12:43:24.227Z,73.43
2018-01-15T12:44:51.239Z,73.19
2018-01-15T12:46:22.262Z,73.55
2018-01-15T12:47:49.535Z,73.14
2018-01-15T12:49:12.720Z,73.30
2018-01-15T12:50:43.864Z,73.47
2018-01-15T12:52:10.839Z,73.42
2018-01-15T12:53:37.694Z,73.58
2018-01-15T12:55:04.844Z,73.22
2018-01-15T12:56:31.934Z,74.15
2018-01-15T12:57:58.970Z,74.05
2018-01-15T12:59:21.831Z,73.84
2018-01-15T13:00:53.174Z,73.70
2018-01-15T13:02:20.440Z,73.87
2018-01-15T13:03:43.408Z,74.06
2018-01-15T13:05:10.665Z,73.95
2018-01-15T13:06:37.996Z,74.19
2018-01-15T13:08:04.647Z,74.15
2018-01-15T13:09:31.909Z,74.44
2018-01-15T13:11:02.899Z,74.32
2018-01-15T13:12:29.920Z,74.02
2018-01-15T13:13:53.019Z,73.95
2018-01-15T13:15:20.049Z,74.06
2018-01-15T13:16:47.218Z,74.32
2018-01-15T13:18:14.518Z,74.41
2018-01-15T13:19:45.570Z,74.86
2018-01-15T13:21:12.758Z,74.43
2018-01-15T13:22:35.763Z,74.51
2018-01-15T13:24:06.941Z,74.84
2018-01-15T13:25:34.175Z,74.23
2018-01-15T13:27:01.399Z,74.74
2018-01-15T13:28:28.464Z,74.62
2018-01-15T13:29:55.506Z,74.89
2018-01-15T13:31:18.279Z,74.81
2018-01-15T13:32:45.368Z,75.08
2018-01-15T13:34:12.503Z,74.88
2018-01-15T13:35:39.629Z,74.79
2018-01-15T13:37:06.785Z,74.59
2018-01-15T13:38:33.580Z,74.88
2018-01-15T13:40:04.822Z,74.79
2018-01-15T13:41:31.839Z,74.83
2018-01-15T13:42:54.805Z,74.24
2018-01-15T13:44:25.274Z,74.43
2018-01-15T13:45:52.406Z,74.30
2018-01-15T13:47:19.533Z,74.45
2018-01-15T13:48:42.719Z,74.36
2018-01-15T13:50:13.850Z,74.50
2018-01-15T13:51:37.203Z,74.37
2018-01-15T13:53:08.105Z,74.63
2018-01-15T13:54:35.119Z,74.67
2018-01-15T13:56:01.612Z,74.66
2018-01-15T13:57:24.853Z,74.49
2018-01-15T13:58:55.832Z,74.39
2018-01-15T14:00:24.002Z,74.38
2018-01-15T14:01:46.038Z,74.52
2018-01-15T14:03:12.267Z,74.33
2018-01-15T14:04:38.822Z,74.34
2018-01-15T14:06:06.208Z,74.46
2018-01-15T14:07:33.123Z,74.61
2018-01-15T14:09:00.156Z,74.34
2018-01-15T14:10:27.296Z,74.51
2018-01-15T14:11:54.465Z,74.67
2018-01-15T14:13:21.478Z,74.49
2018-01-15T14:14:52.451Z,74.68
2018-01-15T14:16:19.640Z,74.88
2018-01-15T14:17:46.801Z,74.86
2018-01-15T14:19:14.126Z,75.22
2018-01-15T14:20:37.275Z,75.05
2018-01-15T14:22:04.559Z,75.10
2018-01-15T14:23:31.476Z,75.17
2018-01-15T14:24:58.445Z,75.19
2018-01-15T14:26:25.775Z,75.37
2018-01-15T14:27:56.341Z,75.31
2018-01-15T14:29:23.423Z,75.09
2018-01-15T14:30:46.277Z,75.17
2018-01-15T14:32:13.530Z,74.85
2018-01-15T14:33:40.476Z,75.08
2018-01-15T14:35:07.135Z,75.38
2018-01-15T14:36:33.535Z,75.58
2018-01-15T14:37:59.778Z,75.63
2018-01-15T14:39:26.932Z,75.47
2018-01-15T14:40:57.929Z,75.56
2018-01-15T14:42:21.087Z,75.79
2018-01-15T14:43:48.380Z,75.76
2018-01-15T14:45:15.077Z,75.67
2018-01-15T14:46:45.812Z,75.79
2018-01-15T14:48:12.781Z,76.00
2018-01-15T14:49:35.491Z,76.25
2018-01-15T14:51:02.544Z,76.25
2018-01-15T14:52:29.730Z,76.14
2018-01-15T14:53:56.901Z,76.19
2018-01-15T14:55:23.962Z,76.49
2018-01-15T14:56:55.257Z,76.67
2018-01-15T14:58:18.485Z,76.59
2018-01-15T14:59:45.398Z,76.77
2018-01-15T15:01:16.003Z,76.98
2018-01-15T15:02:39.275Z,76.95
2018-01-15T15:04:06.281Z,76.59
2018-01-15T15:05:37.310Z,76.53
2018-01-15T15:07:00.233Z,76.68
2018-01-15T15:08:31.290Z,76.89
2018-01-15T15:09:58.289Z,76.81
2018-01-15T15:11:24.750Z,76.96
2018-01-15T15:12:47.804Z,76.90
2018-01-15T15:14:14.394Z,77.08
2018-01-15T15:15:44.847Z,76.85
2018-01-15T15:17:07.982Z,76.79
2018-01-15T15:18:34.981Z,77.03
2018-01-15T15:20:02.261Z,76.76
2018-01-15T15:21:33.448Z,76.75
2018-01-15T15:23:00.655Z,76.83
2018-01-15T15:24:27.499Z,76.78
2018-01-15T15:25:55.754Z,76.95
2018-01-15T15:27:22.039Z,77.00
2018-01-15T15:28:44.908Z,76.96
2018-01-15T15:30:15.408Z,76.93
2018-01-15T15:31:38.613Z,77.04
2018-01-15T15:33:05.827Z,77.03
2018-01-15T15:34:32.893Z,77.01
2018-01-15T15:35:59.980Z,77.13
2018-01-15T15:37:30.751Z,77.24
2018-01-15T15:38:53.628Z,77.38
2018-01-15T15:40:24.044Z,77.34
2018-01-15T15:41:47.258Z,77.05
2018-01-15T15:43:14.183Z,77.07
2018-01-15T15:44:45.404Z,76.99
2018-01-15T15:46:08.667Z,77.27
2018-01-15T15:47:39.823Z,77.16
2018-01-15T15:49:03.036Z,77.23
2018-01-15T15:50:30.167Z,77.07
2018-01-15T15:51:57.240Z,77.29
2018-01-15T15:53:28.437Z,77.31
2018-01-15T15:54:55.222Z,77.36
2018-01-15T15:56:18.261Z,77.31
2018-01-15T15:57:49.576Z,77.19
2018-01-15T15:59:12.811Z,77.19
2018-01-15T16:00:39.989Z,77.05
2018-01-15T16:02:07.144Z,77.03
2018-01-15T16:03:34.328Z,77.00
2018-01-15T16:05:05.560Z,76.77
2018-01-15T16:06:32.726Z,77.12
2018-01-15T16:07:59.958Z,77.10
2018-01-15T16:09:27.121Z,76.93
2018-01-15T16:10:53.981Z,76.88
2018-01-15T16:12:21.071Z,76.90
2018-01-15T16:13:44.283Z,76.99
2018-01-15T16:15:15.387Z,77.05
2018-01-15T16:16:42.433Z,77.17
2018-01-15T16:18:05.448Z,76.78
2018-01-15T16:19:36.359Z,77.05
2018-01-15T16:21:03.613Z,76.74
2018-01-15T16:22:26.925Z,76.75
2018-01-15T16:23:53.838Z,76.72
2018-01-15T16:25:24.888Z,76.64
2018-01-15T16:26:52.340Z,76.70
2018-01-15T16:28:15.103Z,76.49
2018-01-15T16:29:42.246Z,76.39
2018-01-15T16:31:09.355Z,76.58
2018-01-15T16:32:36.551Z,76.48
2018-01-15T16:34:07.771Z,76.32
2018-01-15T16:35:30.898Z,76.48
2018-01-15T16:36:58.037Z,76.09
2018-01-15T16:38:25.156Z,76.17
2018-01-15T16:39:56.258Z,76.06
2018-01-15T16:41:23.667Z,76.18
2018-01-15T16:42:46.782Z,76.23
2018-01-15T16:44:17.813Z,76.42
2018-01-15T16:45:44.693Z,76.26
2018-01-15T16:47:11.710Z,76.34
2018-01-15T16:48:39.009Z,75.88
2018-01-15T16:50:06.199Z,75.98
2018-01-15T16:51:29.326Z,75.93
2018-01-15T16:52:56.489Z,76.08
2018-01-15T16:54:27.646Z,75.78
2018-01-15T16:55:54.827Z,75.75
2018-01-15T16:57:17.930Z,75.78
2018-01-15T16:58:48.809Z,75.76
2018-01-15T17:00:16.139Z,75.58
2018-01-15T17:01:43.242Z,75.85
2018-01-15T17:03:06.293Z,75.77
2018-01-15T17:04:37.484Z,75.73
2018-01-15T17:06:00.529Z,75.88
2018-01-15T17:07:27.497Z,75.46
2018-01-15T17:08:54.461Z,75.58
2018-01-15T17:10:25.400Z,75.38
2018-01-15T17:11:48.599Z,75.25
2018-01-15T17:13:19.823Z,75.34
2018-01-15T17:14:45.576Z,75.02
2018-01-15T17:16:12.534Z,75.07
2018-01-15T17:17:36.012Z,75.22
2018-01-15T17:19:03.160Z,75.34
2018-01-15T17:20:34.359Z,75.21
2018-01-15T17:21:57.418Z,75.09
2018-01-15T17:23:28.343Z,75.18
2018-01-15T17:24:51.352Z,75.16
2018-01-15T17:26:18.456Z,75.21
2018-01-15T17:27:45.429Z,75.13
2018-01-15T17:29:12.666Z,75.39
2018-01-15T17:30:39.759Z,75.27
2018-01-15T17:32:11.012Z,75.20
2018-01-15T17:33:38.069Z,74.95
2018-01-15T17:35:05.196Z,75.03
2018-01-15T17:36:32.447Z,75.04
2018-01-15T17:37:55.625Z,74.97
2018-01-15T17:39:22.719Z,75.15
2018-01-15T17:40:54.043Z,75.13
2018-01-15T17:42:17.222Z,74.87
2018-01-15T17:43:48.470Z,75.04
2018-01-15T17:45:15.756Z,74.91
2018-01-15T17:46:42.797Z,74.87
2018-01-15T17:48:06.119Z,74.82
2018-01-15T17:49:33.386Z,74.75
2018-01-15T17:51:04.397Z,74.86
2018-01-15T17:52:31.129Z,74.82
2018-01-15T17:53:54.197Z,74.65
2018-01-15T17:55:21.328Z,74.45
2018-01-15T17:56:52.301Z,74.44
2018-01-15T17:58:19.468Z,74.67
2018-01-15T17:59:42.801Z,74.75
2018-01-15T18:01:14.009Z,74.84
2018-01-15T18:02:37.325Z,74.68
2018-01-15T18:04:04.587Z,74.52
2018-01-15T18:05:35.573Z,74.55
2018-01-15T18:07:02.662Z,74.92
2018-01-15T18:08:25.515Z,74.50
2018-01-15T18:09:52.601Z,74.73
2018-01-15T18:11:19.843Z,74.76
2018-01-15T18:12:47.001Z,74.57
2018-01-15T18:14:14.258Z,74.68
2018-01-15T18:15:45.544Z,74.66
2018-01-15T18:17:08.660Z,74.71
2018-01-15T18:18:39.874Z,74.59
2018-01-15T18:20:06.861Z,74.50
2018-01-15T18:21:33.972Z,74.42
2018-01-15T18:23:01.078Z,74.38
2018-01-15T18:24:28.314Z,74.52
2018-01-15T18:25:51.128Z,74.46
2018-01-15T18:27:18.166Z,74.56
2018-01-15T18:28:45.403Z,74.51
2018-01-15T18:30:12.653Z,74.37
2018-01-15T18:31:43.755Z,74.54
2018-01-15T18:33:10.879Z,74.61
2018-01-15T18:34:38.026Z,74.83
2018-01-15T18:36:05.122Z,74.52
2018-01-15T18:37:28.117Z,74.24
2018-01-15T18:38:55.355Z,74.41
2018-01-15T18:40:22.468Z,74.43